sensor_id;sensor_type;location;lat;lon;timestamp;P1;durP1;ratioP1;P2;durP2;ratioP2
5612;SDS011;63463;53.586;9.928;2023-02-10T00:01:22;50.07;;;20.50;;
5612;SDS011;63463;53.586;9.928;2023-02-10T00:03:48;55.03;;;21.13;;
5612;SDS011;63463;53.586;9.928;2023-02-10T00:06:15;59.63;;;20.57;;
5612;SDS011;63463;53.586;9.928;2023-02-10T00:08:41;61.10;;;19.90;;
5612;SDS011;63463;53.586;9.928;2023-02-10T00:11:09;57.60;;;20.87;;
5612;SDS011;63463;53.586;9.928;2023-02-10T00:13:36;53.80;;;20.57;;
5612;SDS011;63463;53.586;9.928;2023-02-10T00:16:03;59.93;;;21.67;;
5612;SDS011;63463;53.586;9.928;2023-02-10T00:18:29;42.80;;;20.30;;
5612;SDS011;63463;53.586;9.928;2023-02-10T00:20:56;54.13;;;21.67;;
5612;SDS011;63463;53.586;9.928;2023-02-10T00:23:22;56.27;;;19.73;;
5612;SDS011;63463;53.586;9.928;2023-02-10T00:25:48;64.17;;;21.90;;
5612;SDS011;63463;53.586;9.928;2023-02-10T00:28:14;68.03;;;22.00;;
5612;SDS011;63463;53.586;9.928;2023-02-10T00:30:40;53.27;;;21.70;;
5612;SDS011;63463;53.586;9.928;2023-02-10T00:33:07;44.90;;;18.90;;
5612;SDS011;63463;53.586;9.928;2023-02-10T00:35:33;53.87;;;21.10;;
5612;SDS011;63463;53.586;9.928;2023-02-10T00:38:00;58.93;;;20.90;;
5612;SDS011;63463;53.586;9.928;2023-02-10T00:40:26;64.80;;;20.07;;
5612;SDS011;63463;53.586;9.928;2023-02-10T00:42:52;58.83;;;20.20;;
5612;SDS011;63463;53.586;9.928;2023-02-10T00:45:18;39.50;;;18.60;;
5612;SDS011;63463;53.586;9.928;2023-02-10T00:47:44;50.17;;;20.03;;
5612;SDS011;63463;53.586;9.928;2023-02-10T00:50:11;48.67;;;18.80;;
5612;SDS011;63463;53.586;9.928;2023-02-10T00:52:37;57.07;;;20.90;;
5612;SDS011;63463;53.586;9.928;2023-02-10T00:55:03;53.10;;;19.00;;
5612;SDS011;63463;53.586;9.928;2023-02-10T00:57:29;47.07;;;19.27;;
5612;SDS011;63463;53.586;9.928;2023-02-10T00:59:55;58.07;;;19.77;;
5612;SDS011;63463;53.586;9.928;2023-02-10T01:02:22;52.07;;;19.07;;
5612;SDS011;63463;53.586;9.928;2023-02-10T01:04:48;45.80;;;18.40;;
5612;SDS011;63463;53.586;9.928;2023-02-10T01:07:14;47.23;;;18.90;;
5612;SDS011;63463;53.586;9.928;2023-02-10T01:09:40;49.83;;;18.17;;
5612;SDS011;63463;53.586;9.928;2023-02-10T01:12:07;64.87;;;20.73;;
5612;SDS011;63463;53.586;9.928;2023-02-10T01:14:33;49.23;;;19.03;;
5612;SDS011;63463;53.586;9.928;2023-02-10T01:16:59;37.73;;;17.10;;
5612;SDS011;63463;53.586;9.928;2023-02-10T01:19:25;53.40;;;19.70;;
5612;SDS011;63463;53.586;9.928;2023-02-10T01:21:51;53.20;;;18.70;;
5612;SDS011;63463;53.586;9.928;2023-02-10T01:24:17;43.63;;;17.70;;
5612;SDS011;63463;53.586;9.928;2023-02-10T01:26:43;50.37;;;17.20;;
5612;SDS011;63463;53.586;9.928;2023-02-10T01:29:09;62.10;;;17.07;;
5612;SDS011;63463;53.586;9.928;2023-02-10T01:31:36;51.60;;;17.67;;
5612;SDS011;63463;53.586;9.928;2023-02-10T01:34:02;36.67;;;16.83;;
5612;SDS011;63463;53.586;9.928;2023-02-10T01:36:28;32.77;;;16.10;;
5612;SDS011;63463;53.586;9.928;2023-02-10T01:38:54;40.00;;;17.23;;
5612;SDS011;63463;53.586;9.928;2023-02-10T01:41:21;48.27;;;18.10;;
5612;SDS011;63463;53.586;9.928;2023-02-10T01:43:59;33.90;;;16.10;;
5612;SDS011;63463;53.586;9.928;2023-02-10T01:46:29;40.20;;;17.03;;
5612;SDS011;63463;53.586;9.928;2023-02-10T01:48:55;52.13;;;17.80;;
5612;SDS011;63463;53.586;9.928;2023-02-10T01:51:24;37.70;;;16.50;;
5612;SDS011;63463;53.586;9.928;2023-02-10T01:53:51;40.80;;;16.43;;
5612;SDS011;63463;53.586;9.928;2023-02-10T01:56:18;45.60;;;17.77;;
5612;SDS011;63463;53.586;9.928;2023-02-10T01:58:44;43.40;;;15.37;;
5612;SDS011;63463;53.586;9.928;2023-02-10T02:01:10;56.87;;;17.30;;
5612;SDS011;63463;53.586;9.928;2023-02-10T02:03:36;35.17;;;15.30;;
5612;SDS011;63463;53.586;9.928;2023-02-10T02:06:06;39.93;;;16.17;;
5612;SDS011;63463;53.586;9.928;2023-02-10T02:08:33;38.23;;;16.57;;
5612;SDS011;63463;53.586;9.928;2023-02-10T02:21:52;35.63;;;15.93;;
5612;SDS011;63463;53.586;9.928;2023-02-10T02:24:32;37.17;;;15.00;;
5612;SDS011;63463;53.586;9.928;2023-02-10T02:34:51;53.20;;;17.67;;
5612;SDS011;63463;53.586;9.928;2023-02-10T02:37:23;40.43;;;15.70;;
5612;SDS011;63463;53.586;9.928;2023-02-10T02:39:50;50.73;;;17.20;;
5612;SDS011;63463;53.586;9.928;2023-02-10T02:42:27;43.27;;;15.97;;
5612;SDS011;63463;53.586;9.928;2023-02-10T02:45:00;42.67;;;16.67;;
5612;SDS011;63463;53.586;9.928;2023-02-10T02:55:13;33.57;;;17.20;;
5612;SDS011;63463;53.586;9.928;2023-02-10T02:57:48;41.80;;;16.80;;
5612;SDS011;63463;53.586;9.928;2023-02-10T03:00:17;49.90;;;18.03;;
5612;SDS011;63463;53.586;9.928;2023-02-10T03:02:45;33.60;;;17.83;;
5612;SDS011;63463;53.586;9.928;2023-02-10T03:05:16;49.20;;;17.97;;
5612;SDS011;63463;53.586;9.928;2023-02-10T03:07:42;48.40;;;17.17;;
5612;SDS011;63463;53.586;9.928;2023-02-10T03:10:09;47.67;;;18.70;;
5612;SDS011;63463;53.586;9.928;2023-02-10T03:12:35;46.93;;;19.10;;
5612;SDS011;63463;53.586;9.928;2023-02-10T03:15:01;45.60;;;17.80;;
5612;SDS011;63463;53.586;9.928;2023-02-10T03:17:27;49.73;;;18.67;;
5612;SDS011;63463;53.586;9.928;2023-02-10T03:19:53;46.17;;;18.47;;
5612;SDS011;63463;53.586;9.928;2023-02-10T03:22:19;59.20;;;18.33;;
5612;SDS011;63463;53.586;9.928;2023-02-10T03:24:45;50.97;;;18.83;;
5612;SDS011;63463;53.586;9.928;2023-02-10T03:27:11;45.80;;;17.33;;
5612;SDS011;63463;53.586;9.928;2023-02-10T03:29:37;46.43;;;19.20;;
5612;SDS011;63463;53.586;9.928;2023-02-10T03:32:02;46.10;;;18.30;;
5612;SDS011;63463;53.586;9.928;2023-02-10T03:34:30;42.20;;;17.63;;
5612;SDS011;63463;53.586;9.928;2023-02-10T03:36:56;34.67;;;17.30;;
5612;SDS011;63463;53.586;9.928;2023-02-10T03:39:22;40.60;;;17.53;;
5612;SDS011;63463;53.586;9.928;2023-02-10T03:41:48;57.60;;;19.97;;
5612;SDS011;63463;53.586;9.928;2023-02-10T03:44:14;46.00;;;17.60;;
5612;SDS011;63463;53.586;9.928;2023-02-10T03:46:40;42.30;;;18.20;;
5612;SDS011;63463;53.586;9.928;2023-02-10T03:49:06;42.53;;;18.40;;
5612;SDS011;63463;53.586;9.928;2023-02-10T03:51:32;53.30;;;19.43;;
5612;SDS011;63463;53.586;9.928;2023-02-10T03:53:58;41.77;;;17.80;;
5612;SDS011;63463;53.586;9.928;2023-02-10T03:56:24;49.07;;;20.17;;
5612;SDS011;63463;53.586;9.928;2023-02-10T03:58:50;41.10;;;18.80;;
5612;SDS011;63463;53.586;9.928;2023-02-10T04:01:16;39.67;;;17.80;;
5612;SDS011;63463;53.586;9.928;2023-02-10T04:03:43;49.27;;;19.00;;
5612;SDS011;63463;53.586;9.928;2023-02-10T04:06:09;43.03;;;17.53;;
5612;SDS011;63463;53.586;9.928;2023-02-10T04:08:36;42.37;;;18.90;;
5612;SDS011;63463;53.586;9.928;2023-02-10T04:11:02;51.60;;;19.47;;
5612;SDS011;63463;53.586;9.928;2023-02-10T04:13:28;49.83;;;19.90;;
5612;SDS011;63463;53.586;9.928;2023-02-10T04:16:01;44.53;;;19.33;;
5612;SDS011;63463;53.586;9.928;2023-02-10T04:18:27;58.10;;;19.80;;
5612;SDS011;63463;53.586;9.928;2023-02-10T04:20:53;43.57;;;19.40;;
5612;SDS011;63463;53.586;9.928;2023-02-10T04:23:20;39.93;;;18.90;;
5612;SDS011;63463;53.586;9.928;2023-02-10T04:25:46;45.07;;;19.10;;
5612;SDS011;63463;53.586;9.928;2023-02-10T04:28:12;41.37;;;19.43;;
5612;SDS011;63463;53.586;9.928;2023-02-10T04:30:38;50.10;;;18.70;;
5612;SDS011;63463;53.586;9.928;2023-02-10T04:33:04;63.33;;;20.30;;
5612;SDS011;63463;53.586;9.928;2023-02-10T04:35:30;48.63;;;19.20;;
5612;SDS011;63463;53.586;9.928;2023-02-10T04:37:57;44.77;;;17.07;;
5612;SDS011;63463;53.586;9.928;2023-02-10T04:40:23;43.47;;;19.40;;
5612;SDS011;63463;53.586;9.928;2023-02-10T04:42:49;58.90;;;20.07;;
5612;SDS011;63463;53.586;9.928;2023-02-10T04:45:15;47.80;;;19.13;;
5612;SDS011;63463;53.586;9.928;2023-02-10T04:47:41;48.13;;;19.47;;
5612;SDS011;63463;53.586;9.928;2023-02-10T04:50:07;50.87;;;19.40;;
5612;SDS011;63463;53.586;9.928;2023-02-10T04:52:33;50.60;;;19.03;;
5612;SDS011;63463;53.586;9.928;2023-02-10T04:54:59;35.80;;;18.40;;
5612;SDS011;63463;53.586;9.928;2023-02-10T04:57:25;64.00;;;18.37;;
5612;SDS011;63463;53.586;9.928;2023-02-10T04:59:51;49.53;;;18.80;;
5612;SDS011;63463;53.586;9.928;2023-02-10T05:02:17;37.43;;;19.60;;
5612;SDS011;63463;53.586;9.928;2023-02-10T05:04:43;59.07;;;19.07;;
5612;SDS011;63463;53.586;9.928;2023-02-10T05:07:09;36.60;;;18.33;;
5612;SDS011;63463;53.586;9.928;2023-02-10T05:09:35;55.73;;;19.20;;
5612;SDS011;63463;53.586;9.928;2023-02-10T05:12:01;31.90;;;16.40;;
5612;SDS011;63463;53.586;9.928;2023-02-10T05:14:27;43.37;;;19.50;;
5612;SDS011;63463;53.586;9.928;2023-02-10T05:16:53;41.67;;;18.87;;
5612;SDS011;63463;53.586;9.928;2023-02-10T05:19:19;43.67;;;19.70;;
5612;SDS011;63463;53.586;9.928;2023-02-10T05:21:45;48.37;;;20.63;;
5612;SDS011;63463;53.586;9.928;2023-02-10T05:24:11;47.37;;;20.07;;
5612;SDS011;63463;53.586;9.928;2023-02-10T05:26:37;46.23;;;18.57;;
5612;SDS011;63463;53.586;9.928;2023-02-10T05:29:03;36.17;;;18.37;;
5612;SDS011;63463;53.586;9.928;2023-02-10T05:31:29;44.80;;;18.20;;
5612;SDS011;63463;53.586;9.928;2023-02-10T05:33:55;56.73;;;20.10;;
5612;SDS011;63463;53.586;9.928;2023-02-10T05:36:21;82.10;;;21.90;;
5612;SDS011;63463;53.586;9.928;2023-02-10T05:38:47;42.23;;;18.50;;
5612;SDS011;63463;53.586;9.928;2023-02-10T05:41:33;42.87;;;19.23;;
5612;SDS011;63463;53.586;9.928;2023-02-10T05:43:59;45.27;;;18.20;;
5612;SDS011;63463;53.586;9.928;2023-02-10T05:46:25;47.70;;;20.10;;
5612;SDS011;63463;53.586;9.928;2023-02-10T05:48:51;55.53;;;20.10;;
5612;SDS011;63463;53.586;9.928;2023-02-10T05:51:17;48.53;;;18.60;;
5612;SDS011;63463;53.586;9.928;2023-02-10T05:53:43;43.77;;;20.50;;
5612;SDS011;63463;53.586;9.928;2023-02-10T05:56:09;47.57;;;18.87;;
5612;SDS011;63463;53.586;9.928;2023-02-10T05:58:35;48.23;;;20.50;;
5612;SDS011;63463;53.586;9.928;2023-02-10T06:01:06;48.80;;;18.97;;
5612;SDS011;63463;53.586;9.928;2023-02-10T06:03:32;52.50;;;18.73;;
5612;SDS011;63463;53.586;9.928;2023-02-10T06:05:58;46.83;;;18.70;;
5612;SDS011;63463;53.586;9.928;2023-02-10T06:08:25;47.73;;;20.73;;
5612;SDS011;63463;53.586;9.928;2023-02-10T06:10:51;63.03;;;20.50;;
5612;SDS011;63463;53.586;9.928;2023-02-10T06:13:17;47.73;;;17.90;;
5612;SDS011;63463;53.586;9.928;2023-02-10T06:15:43;40.60;;;19.60;;
5612;SDS011;63463;53.586;9.928;2023-02-10T06:18:09;61.83;;;18.80;;
5612;SDS011;63463;53.586;9.928;2023-02-10T06:20:35;51.33;;;18.77;;
5612;SDS011;63463;53.586;9.928;2023-02-10T06:23:01;45.67;;;18.83;;
5612;SDS011;63463;53.586;9.928;2023-02-10T06:25:27;47.57;;;18.90;;
5612;SDS011;63463;53.586;9.928;2023-02-10T06:27:53;56.07;;;18.97;;
5612;SDS011;63463;53.586;9.928;2023-02-10T06:30:19;43.83;;;18.87;;
5612;SDS011;63463;53.586;9.928;2023-02-10T06:32:45;46.53;;;18.53;;
5612;SDS011;63463;53.586;9.928;2023-02-10T06:35:11;49.63;;;19.00;;
5612;SDS011;63463;53.586;9.928;2023-02-10T06:37:37;97.30;;;19.50;;
5612;SDS011;63463;53.586;9.928;2023-02-10T06:40:03;63.77;;;19.93;;
5612;SDS011;63463;53.586;9.928;2023-02-10T06:42:30;46.87;;;18.90;;
5612;SDS011;63463;53.586;9.928;2023-02-10T06:44:56;52.17;;;19.07;;
5612;SDS011;63463;53.586;9.928;2023-02-10T06:47:22;46.50;;;19.23;;
5612;SDS011;63463;53.586;9.928;2023-02-10T06:49:48;52.00;;;18.73;;
5612;SDS011;63463;53.586;9.928;2023-02-10T06:52:14;56.07;;;20.33;;
5612;SDS011;63463;53.586;9.928;2023-02-10T06:54:40;49.63;;;19.40;;
5612;SDS011;63463;53.586;9.928;2023-02-10T06:57:06;52.53;;;20.10;;
5612;SDS011;63463;53.586;9.928;2023-02-10T06:59:32;48.47;;;19.70;;
5612;SDS011;63463;53.586;9.928;2023-02-10T07:01:58;45.87;;;18.23;;
5612;SDS011;63463;53.586;9.928;2023-02-10T07:04:27;52.17;;;19.97;;
5612;SDS011;63463;53.586;9.928;2023-02-10T07:06:54;54.33;;;21.30;;
5612;SDS011;63463;53.586;9.928;2023-02-10T07:09:20;43.97;;;18.50;;
5612;SDS011;63463;53.586;9.928;2023-02-10T07:11:47;63.20;;;18.87;;
5612;SDS011;63463;53.586;9.928;2023-02-10T07:14:13;66.10;;;21.37;;
5612;SDS011;63463;53.586;9.928;2023-02-10T07:16:39;69.83;;;19.67;;
5612;SDS011;63463;53.586;9.928;2023-02-10T07:19:05;45.57;;;18.87;;
5612;SDS011;63463;53.586;9.928;2023-02-10T07:21:31;50.30;;;19.40;;
5612;SDS011;63463;53.586;9.928;2023-02-10T07:23:57;75.43;;;20.10;;
5612;SDS011;63463;53.586;9.928;2023-02-10T07:26:25;57.83;;;21.10;;
5612;SDS011;63463;53.586;9.928;2023-02-10T07:28:52;63.97;;;20.17;;
5612;SDS011;63463;53.586;9.928;2023-02-10T07:31:18;46.67;;;19.13;;
5612;SDS011;63463;53.586;9.928;2023-02-10T07:33:44;56.33;;;18.67;;
5612;SDS011;63463;53.586;9.928;2023-02-10T07:36:10;68.57;;;17.40;;
5612;SDS011;63463;53.586;9.928;2023-02-10T07:38:36;47.10;;;20.00;;
5612;SDS011;63463;53.586;9.928;2023-02-10T07:41:02;47.87;;;19.87;;
5612;SDS011;63463;53.586;9.928;2023-02-10T07:43:28;50.77;;;19.20;;
5612;SDS011;63463;53.586;9.928;2023-02-10T07:45:54;45.33;;;19.17;;
5612;SDS011;63463;53.586;9.928;2023-02-10T07:48:20;50.53;;;20.00;;
5612;SDS011;63463;53.586;9.928;2023-02-10T07:50:47;53.60;;;19.90;;
5612;SDS011;63463;53.586;9.928;2023-02-10T07:53:13;51.90;;;18.37;;
5612;SDS011;63463;53.586;9.928;2023-02-10T07:55:39;38.73;;;16.73;;
5612;SDS011;63463;53.586;9.928;2023-02-10T07:58:05;63.50;;;19.17;;
5612;SDS011;63463;53.586;9.928;2023-02-10T08:00:31;52.77;;;19.13;;
5612;SDS011;63463;53.586;9.928;2023-02-10T08:02:57;68.13;;;19.47;;
5612;SDS011;63463;53.586;9.928;2023-02-10T08:05:23;49.30;;;18.03;;
5612;SDS011;63463;53.586;9.928;2023-02-10T08:07:51;66.97;;;20.27;;
5612;SDS011;63463;53.586;9.928;2023-02-10T08:10:17;50.37;;;19.90;;
5612;SDS011;63463;53.586;9.928;2023-02-10T08:12:43;50.93;;;19.00;;
5612;SDS011;63463;53.586;9.928;2023-02-10T08:15:11;59.20;;;19.20;;
5612;SDS011;63463;53.586;9.928;2023-02-10T08:17:37;51.07;;;19.30;;
5612;SDS011;63463;53.586;9.928;2023-02-10T08:20:04;51.87;;;20.20;;
5612;SDS011;63463;53.586;9.928;2023-02-10T08:22:30;42.47;;;19.60;;
5612;SDS011;63463;53.586;9.928;2023-02-10T08:24:56;41.97;;;18.87;;
5612;SDS011;63463;53.586;9.928;2023-02-10T08:27:22;51.50;;;18.90;;
5612;SDS011;63463;53.586;9.928;2023-02-10T08:29:48;43.03;;;19.80;;
5612;SDS011;63463;53.586;9.928;2023-02-10T08:32:14;53.60;;;19.20;;
5612;SDS011;63463;53.586;9.928;2023-02-10T08:34:52;53.47;;;18.83;;
5612;SDS011;63463;53.586;9.928;2023-02-10T08:37:18;41.83;;;16.87;;
5612;SDS011;63463;53.586;9.928;2023-02-10T08:39:44;88.73;;;18.97;;
5612;SDS011;63463;53.586;9.928;2023-02-10T08:42:11;46.53;;;18.67;;
5612;SDS011;63463;53.586;9.928;2023-02-10T08:44:37;57.13;;;19.67;;
5612;SDS011;63463;53.586;9.928;2023-02-10T08:47:03;43.80;;;17.23;;
5612;SDS011;63463;53.586;9.928;2023-02-10T08:49:29;56.23;;;18.17;;
5612;SDS011;63463;53.586;9.928;2023-02-10T08:52:16;50.33;;;17.70;;
5612;SDS011;63463;53.586;9.928;2023-02-10T08:54:42;68.27;;;18.50;;
5612;SDS011;63463;53.586;9.928;2023-02-10T08:57:08;82.83;;;19.43;;
5612;SDS011;63463;53.586;9.928;2023-02-10T08:59:34;45.30;;;18.83;;
5612;SDS011;63463;53.586;9.928;2023-02-10T09:02:01;43.90;;;18.57;;
5612;SDS011;63463;53.586;9.928;2023-02-10T09:04:27;65.10;;;19.50;;
5612;SDS011;63463;53.586;9.928;2023-02-10T09:06:53;50.90;;;18.23;;
5612;SDS011;63463;53.586;9.928;2023-02-10T09:09:20;45.33;;;18.87;;
5612;SDS011;63463;53.586;9.928;2023-02-10T09:11:51;46.63;;;17.40;;
5612;SDS011;63463;53.586;9.928;2023-02-10T09:14:18;58.23;;;20.33;;
5612;SDS011;63463;53.586;9.928;2023-02-10T09:16:45;52.47;;;19.67;;
5612;SDS011;63463;53.586;9.928;2023-02-10T09:19:11;61.57;;;19.20;;
5612;SDS011;63463;53.586;9.928;2023-02-10T09:21:37;64.63;;;18.90;;
5612;SDS011;63463;53.586;9.928;2023-02-10T09:24:03;51.77;;;18.87;;
5612;SDS011;63463;53.586;9.928;2023-02-10T09:26:30;63.27;;;19.47;;
5612;SDS011;63463;53.586;9.928;2023-02-10T09:28:56;49.80;;;19.40;;
5612;SDS011;63463;53.586;9.928;2023-02-10T09:31:22;63.33;;;18.10;;
5612;SDS011;63463;53.586;9.928;2023-02-10T09:33:49;55.30;;;18.00;;
5612;SDS011;63463;53.586;9.928;2023-02-10T09:36:16;46.87;;;18.30;;
5612;SDS011;63463;53.586;9.928;2023-02-10T09:38:42;63.97;;;19.70;;
5612;SDS011;63463;53.586;9.928;2023-02-10T09:41:14;45.43;;;19.57;;
5612;SDS011;63463;53.586;9.928;2023-02-10T09:51:40;49.30;;;18.97;;
5612;SDS011;63463;53.586;9.928;2023-02-10T09:54:09;49.53;;;18.77;;
5612;SDS011;63463;53.586;9.928;2023-02-10T09:56:36;52.97;;;19.10;;
5612;SDS011;63463;53.586;9.928;2023-02-10T09:59:04;44.63;;;19.30;;
5612;SDS011;63463;53.586;9.928;2023-02-10T10:01:38;41.93;;;18.33;;
5612;SDS011;63463;53.586;9.928;2023-02-10T10:04:12;56.97;;;19.17;;
5612;SDS011;63463;53.586;9.928;2023-02-10T10:06:39;46.20;;;18.97;;
5612;SDS011;63463;53.586;9.928;2023-02-10T10:11:39;48.87;;;19.50;;
5612;SDS011;63463;53.586;9.928;2023-02-10T10:14:17;52.37;;;18.87;;
5612;SDS011;63463;53.586;9.928;2023-02-10T10:24:17;44.70;;;18.40;;
5612;SDS011;63463;53.586;9.928;2023-02-10T10:26:47;49.23;;;18.97;;
5612;SDS011;63463;53.586;9.928;2023-02-10T10:29:20;52.13;;;21.27;;
5612;SDS011;63463;53.586;9.928;2023-02-10T10:31:47;58.50;;;19.23;;
5612;SDS011;63463;53.586;9.928;2023-02-10T10:34:17;58.40;;;18.73;;
5612;SDS011;63463;53.586;9.928;2023-02-10T10:36:45;33.70;;;18.80;;
5612;SDS011;63463;53.586;9.928;2023-02-10T10:39:16;36.10;;;17.23;;
5612;SDS011;63463;53.586;9.928;2023-02-10T10:41:47;71.43;;;18.87;;
5612;SDS011;63463;53.586;9.928;2023-02-10T10:44:15;41.10;;;15.00;;
5612;SDS011;63463;53.586;9.928;2023-02-10T10:46:52;52.43;;;18.50;;
5612;SDS011;63463;53.586;9.928;2023-02-10T10:49:21;50.37;;;17.73;;
5612;SDS011;63463;53.586;9.928;2023-02-10T10:51:47;48.30;;;18.57;;
5612;SDS011;63463;53.586;9.928;2023-02-10T10:54:19;52.40;;;17.83;;
5612;SDS011;63463;53.586;9.928;2023-02-10T11:01:40;44.13;;;18.43;;
5612;SDS011;63463;53.586;9.928;2023-02-10T11:04:10;42.73;;;19.70;;
5612;SDS011;63463;53.586;9.928;2023-02-10T11:06:36;35.93;;;18.70;;
5612;SDS011;63463;53.586;9.928;2023-02-10T11:09:04;40.87;;;17.53;;
5612;SDS011;63463;53.586;9.928;2023-02-10T11:11:35;42.20;;;18.17;;
5612;SDS011;63463;53.586;9.928;2023-02-10T11:14:03;50.57;;;18.87;;
5612;SDS011;63463;53.586;9.928;2023-02-10T11:16:41;45.37;;;17.30;;
5612;SDS011;63463;53.586;9.928;2023-02-10T11:19:15;39.80;;;18.40;;
5612;SDS011;63463;53.586;9.928;2023-02-10T11:21:42;40.90;;;18.30;;
5612;SDS011;63463;53.586;9.928;2023-02-10T11:29:21;43.00;;;18.10;;
5612;SDS011;63463;53.586;9.928;2023-02-10T11:31:49;46.50;;;19.40;;
5612;SDS011;63463;53.586;9.928;2023-02-10T11:34:59;42.93;;;18.13;;
5612;SDS011;63463;53.586;9.928;2023-02-10T11:37:10;40.53;;;17.93;;
5612;SDS011;63463;53.586;9.928;2023-02-10T11:39:40;41.10;;;16.63;;
5612;SDS011;63463;53.586;9.928;2023-02-10T11:44:34;46.83;;;16.90;;
5612;SDS011;63463;53.586;9.928;2023-02-10T11:47:04;32.27;;;16.20;;
5612;SDS011;63463;53.586;9.928;2023-02-10T11:49:33;37.47;;;16.77;;
5612;SDS011;63463;53.586;9.928;2023-02-10T11:52:02;32.87;;;15.93;;
5612;SDS011;63463;53.586;9.928;2023-02-10T11:54:28;47.93;;;15.80;;
5612;SDS011;63463;53.586;9.928;2023-02-10T11:59:54;30.30;;;14.03;;
5612;SDS011;63463;53.586;9.928;2023-02-10T12:13:05;41.20;;;12.80;;
5612;SDS011;63463;53.586;9.928;2023-02-10T12:20:38;24.87;;;11.13;;
5612;SDS011;63463;53.586;9.928;2023-02-10T12:25:52;25.40;;;10.37;;
5612;SDS011;63463;53.586;9.928;2023-02-10T12:31:08;26.90;;;11.50;;
5612;SDS011;63463;53.586;9.928;2023-02-10T12:41:42;25.47;;;10.93;;
5612;SDS011;63463;53.586;9.928;2023-02-10T12:57:11;37.07;;;11.43;;
5612;SDS011;63463;53.586;9.928;2023-02-10T13:02:12;20.90;;;10.00;;
5612;SDS011;63463;53.586;9.928;2023-02-10T13:04:44;21.57;;;9.37;;
5612;SDS011;63463;53.586;9.928;2023-02-10T13:07:27;37.50;;;10.40;;
5612;SDS011;63463;53.586;9.928;2023-02-10T13:14:51;22.70;;;9.87;;
5612;SDS011;63463;53.586;9.928;2023-02-10T13:17:19;26.13;;;9.90;;
5612;SDS011;63463;53.586;9.928;2023-02-10T13:19:56;21.30;;;10.10;;
5612;SDS011;63463;53.586;9.928;2023-02-10T13:22:43;17.60;;;9.60;;
5612;SDS011;63463;53.586;9.928;2023-02-10T13:25:18;17.70;;;9.93;;
5612;SDS011;63463;53.586;9.928;2023-02-10T13:28:12;18.77;;;8.80;;
5612;SDS011;63463;53.586;9.928;2023-02-10T13:31:02;17.10;;;9.40;;
5612;SDS011;63463;53.586;9.928;2023-02-10T13:33:53;27.27;;;10.00;;
5612;SDS011;63463;53.586;9.928;2023-02-10T13:36:28;18.97;;;9.50;;
5612;SDS011;63463;53.586;9.928;2023-02-10T13:39:02;15.70;;;8.40;;
5612;SDS011;63463;53.586;9.928;2023-02-10T13:41:30;27.80;;;9.10;;
5612;SDS011;63463;53.586;9.928;2023-02-10T13:44:14;10.00;;;7.17;;
5612;SDS011;63463;53.586;9.928;2023-02-10T13:46:42;22.10;;;8.70;;
5612;SDS011;63463;53.586;9.928;2023-02-10T13:49:11;17.93;;;8.47;;
5612;SDS011;63463;53.586;9.928;2023-02-10T13:51:38;25.47;;;7.90;;
5612;SDS011;63463;53.586;9.928;2023-02-10T13:54:04;20.47;;;10.13;;
5612;SDS011;63463;53.586;9.928;2023-02-10T13:56:31;17.10;;;8.60;;
5612;SDS011;63463;53.586;9.928;2023-02-10T13:58:58;17.90;;;8.57;;
5612;SDS011;63463;53.586;9.928;2023-02-10T14:01:32;18.00;;;8.80;;
5612;SDS011;63463;53.586;9.928;2023-02-10T14:03:59;15.63;;;9.20;;
5612;SDS011;63463;53.586;9.928;2023-02-10T14:06:59;18.03;;;9.80;;
5612;SDS011;63463;53.586;9.928;2023-02-10T14:09:22;17.07;;;10.10;;
5612;SDS011;63463;53.586;9.928;2023-02-10T14:11:59;21.47;;;10.77;;
5612;SDS011;63463;53.586;9.928;2023-02-10T14:14:26;20.97;;;10.30;;
5612;SDS011;63463;53.586;9.928;2023-02-10T14:17:01;26.83;;;10.27;;
5612;SDS011;63463;53.586;9.928;2023-02-10T14:21:58;21.57;;;10.93;;
5612;SDS011;63463;53.586;9.928;2023-02-10T14:24:26;21.53;;;9.97;;
5612;SDS011;63463;53.586;9.928;2023-02-10T14:26:53;33.37;;;10.40;;
5612;SDS011;63463;53.586;9.928;2023-02-10T14:29:21;23.43;;;10.53;;
5612;SDS011;63463;53.586;9.928;2023-02-10T14:31:52;26.37;;;10.97;;
5612;SDS011;63463;53.586;9.928;2023-02-10T14:34:25;24.80;;;10.70;;
5612;SDS011;63463;53.586;9.928;2023-02-10T14:39:20;18.60;;;11.33;;
5612;SDS011;63463;53.586;9.928;2023-02-10T14:41:47;15.77;;;10.23;;
5612;SDS011;63463;53.586;9.928;2023-02-10T14:44:28;23.20;;;10.27;;
5612;SDS011;63463;53.586;9.928;2023-02-10T14:55:45;18.43;;;10.80;;
5612;SDS011;63463;53.586;9.928;2023-02-10T14:58:13;16.37;;;10.50;;
5612;SDS011;63463;53.586;9.928;2023-02-10T15:00:39;26.00;;;11.27;;
5612;SDS011;63463;53.586;9.928;2023-02-10T15:03:09;17.97;;;10.03;;
5612;SDS011;63463;53.586;9.928;2023-02-10T15:05:37;19.57;;;10.37;;
5612;SDS011;63463;53.586;9.928;2023-02-10T15:08:04;24.27;;;11.20;;
5612;SDS011;63463;53.586;9.928;2023-02-10T15:10:35;23.33;;;10.50;;
5612;SDS011;63463;53.586;9.928;2023-02-10T15:13:03;29.13;;;11.00;;
5612;SDS011;63463;53.586;9.928;2023-02-10T15:15:34;22.33;;;10.60;;
5612;SDS011;63463;53.586;9.928;2023-02-10T15:18:15;21.17;;;11.60;;
5612;SDS011;63463;53.586;9.928;2023-02-10T15:20:51;35.83;;;11.60;;
5612;SDS011;63463;53.586;9.928;2023-02-10T15:23:18;20.20;;;10.10;;
5612;SDS011;63463;53.586;9.928;2023-02-10T15:25:44;25.53;;;11.03;;
5612;SDS011;63463;53.586;9.928;2023-02-10T15:33:17;34.63;;;13.03;;
5612;SDS011;63463;53.586;9.928;2023-02-10T15:35:52;34.77;;;12.80;;
5612;SDS011;63463;53.586;9.928;2023-02-10T15:41:44;28.27;;;13.03;;
5612;SDS011;63463;53.586;9.928;2023-02-10T15:46:49;21.33;;;12.17;;
5612;SDS011;63463;53.586;9.928;2023-02-10T15:49:16;25.20;;;13.20;;
5612;SDS011;63463;53.586;9.928;2023-02-10T15:51:48;30.00;;;12.70;;
5612;SDS011;63463;53.586;9.928;2023-02-10T15:54:18;28.17;;;13.37;;
5612;SDS011;63463;53.586;9.928;2023-02-10T15:56:58;25.30;;;13.03;;
5612;SDS011;63463;53.586;9.928;2023-02-10T15:59:24;26.93;;;13.60;;
5612;SDS011;63463;53.586;9.928;2023-02-10T16:02:01;27.97;;;14.00;;
5612;SDS011;63463;53.586;9.928;2023-02-10T16:04:27;30.97;;;13.73;;
5612;SDS011;63463;53.586;9.928;2023-02-10T16:06:57;27.70;;;13.93;;
5612;SDS011;63463;53.586;9.928;2023-02-10T16:09:24;27.90;;;13.20;;
5612;SDS011;63463;53.586;9.928;2023-02-10T16:11:58;25.80;;;13.17;;
5612;SDS011;63463;53.586;9.928;2023-02-10T16:17:29;28.00;;;13.40;;
5612;SDS011;63463;53.586;9.928;2023-02-10T16:20:00;26.33;;;14.37;;
5612;SDS011;63463;53.586;9.928;2023-02-10T16:22:26;31.00;;;14.13;;
5612;SDS011;63463;53.586;9.928;2023-02-10T16:24:52;31.50;;;14.87;;
5612;SDS011;63463;53.586;9.928;2023-02-10T16:27:18;25.93;;;14.67;;
5612;SDS011;63463;53.586;9.928;2023-02-10T16:29:44;31.97;;;15.10;;
5612;SDS011;63463;53.586;9.928;2023-02-10T16:32:11;30.80;;;15.03;;
5612;SDS011;63463;53.586;9.928;2023-02-10T16:34:37;26.93;;;13.57;;
5612;SDS011;63463;53.586;9.928;2023-02-10T16:37:04;29.43;;;14.30;;
5612;SDS011;63463;53.586;9.928;2023-02-10T16:39:30;25.57;;;14.70;;
5612;SDS011;63463;53.586;9.928;2023-02-10T16:41:56;30.33;;;14.50;;
5612;SDS011;63463;53.586;9.928;2023-02-10T16:44:22;34.97;;;14.93;;
5612;SDS011;63463;53.586;9.928;2023-02-10T16:46:51;33.43;;;13.07;;
5612;SDS011;63463;53.586;9.928;2023-02-10T16:49:18;31.67;;;13.87;;
5612;SDS011;63463;53.586;9.928;2023-02-10T16:51:44;29.80;;;13.90;;
5612;SDS011;63463;53.586;9.928;2023-02-10T16:54:10;29.00;;;14.07;;
5612;SDS011;63463;53.586;9.928;2023-02-10T16:56:37;27.37;;;13.97;;
5612;SDS011;63463;53.586;9.928;2023-02-10T16:59:03;24.53;;;13.10;;